Latest Weather Observations for Truscott

IDD60801

Issued at 3:31 pm CST Wednesday 28 September 2022 (issued every 10 minutes, with the page automatically refreshed every 10 minutes)

About weather observations | Map of weather stations | Latest weather observations for NT | Other Formats
Station Details ID: 001020 Name: TRUSCOTT Lat: -14.09 Lon: 126.39 Height: 51.0 m
Data from the previous 72 hours. | See also: Recent months at Truscott
Date/Time
CST
Temp
°C
App
Temp
°C
Dew
Point
°C
Rel
Hum
%
Delta-T
°C
Wind Press
QNH
hPa
Press
MSL
hPa
Rain since
9am
mm
Dir  Spd
km/h
Gust
km/h
Spd
kts
Gust
kts
28/03:30pm 31.2 31.2 20.2 52 7.3 NNW 20 28 11 15 1007.2 1006.8 0.0
28/03:00pm 31.4 32.5 21.3 55 6.8 NNW 17 24 9 13 1007.5 1007.1 0.0
28/02:30pm 31.3 33.4 23.1 61 5.7 NNW 17 26 9 14 1007.9 1007.5 0.0
28/02:00pm 31.5 32.9 22.5 59 6.2 NNW 19 28 10 15 1008.2 1007.8 0.0
28/01:30pm 33.1 33.6 19.2 43 9.2 NNW 15 20 8 11 1008.3 1007.9 0.0
28/01:00pm 33.3 34.6 19.4 44 9.2 NNW 11 20 6 11 1008.4 1008.0 0.0
28/12:30pm 32.9 34.6 20.1 47 8.5 WNW 11 20 6 11 1008.9 1008.5 0.0
28/12:00pm 32.5 34.2 19.4 46 8.6 WNW 9 17 5 9 1009.4 1009.0 0.0
28/11:30am 31.9 34.0 20.2 50 7.8 NNW 9 17 5 9 1009.8 1009.5 0.0
28/11:00am 29.9 31.6 20.2 56 6.4 NW 11 19 6 10 1010.1 1009.8 0.0
28/10:30am 30.1 32.2 20.9 57 6.1 W 11 17 6 9 1010.0 1009.7 0.0
28/10:00am 29.4 32.4 22.6 67 4.6 W 11 17 6 9 1010.1 1009.8 0.0
28/09:30am 29.3 31.2 21.3 62 5.4 WSW 13 20 7 11 1010.1 1009.8 0.0
28/09:11am 28.8 32.3 23.5 73 3.6 WSW 11 17 6 9 1010.0 1009.7 0.0
28/09:00am 28.1 31.3 23.7 77 3.0 W 13 17 7 9 1009.9 1009.6 0.0
28/08:58am 28.2 31.3 23.6 76 3.2 WSW 13 17 7 9 1009.9 1009.6 0.0
28/08:30am 27.5 31.6 24.6 84 2.0 W 11 17 6 9 1009.7 1009.4 0.0
28/08:00am 26.5 32.2 25.6 95 0.6 W 6 11 3 6 1009.3 1008.9 0.0
28/07:30am 24.7 30.6 24.7 100 0.0 WSW 2 6 1 3 1009.1 1008.7 0.0
28/07:00am 24.5 29.5 24.5 100 0.0 W 6 7 3 4 1008.8 1008.4 0.0
28/06:30am 24.2 29.0 24.2 100 0.0 NW 6 7 3 4 1008.6 1008.2 0.0
28/06:00am 24.5 29.5 24.5 100 0.0 WNW 6 9 3 5 1008.4 1008.0 0.0
28/05:30am 24.4 29.2 24.4 100 0.0 NW 7 9 4 5 1008.2 1007.8 0.0
28/05:00am 23.8 29.2 23.8 100 0.0 NNW 2 9 1 5 1008.0 1007.6 0.0
28/04:30am 23.5 29.1 23.5 100 0.0 CALM 0 0 0 0 1008.1 1007.7 0.0
28/04:00am 24.0 29.8 24.0 100 0.0 CALM 0 0 0 0 1008.3 1007.9 0.0
28/03:30am 24.8 30.0 24.8 100 0.0 W 6 7 3 4 1008.3 1007.9 0.0
28/03:00am 25.2 30.6 25.2 100 0.0 W 6 9 3 5 1008.4 1008.0 0.0
28/02:30am 25.1 30.5 25.1 100 0.0 W 6 7 3 4 1008.4 1008.0 0.0
28/02:00am 25.6 31.2 25.4 99 0.1 WSW 6 9 3 5 1008.7 1008.3 0.0
28/01:30am 25.5 31.1 25.5 100 0.0 W 6 9 3 5 1008.9 1008.5 0.0
28/01:00am 25.5 31.0 25.3 99 0.1 WNW 6 9 3 5 1009.1 1008.7 0.0
28/12:30am 25.6 30.9 24.9 96 0.5 W 6 9 3 5 1009.3 1008.9 0.0
28/12:00am 25.5 31.1 25.5 100 0.0 NW 6 9 3 5 1009.4 1009.0 0.0
 
Date/Time
CST
Temp
°C
App
Temp
°C
Dew
Point
°C
Rel
Hum
%
Delta-T
°C
Wind Press
QNH
hPa
Press
MSL
hPa
Rain since
9am
mm
Dir  Spd
km/h
Gust
km/h
Spd
kts
Gust
kts
27/11:30pm 25.5 30.9 25.2 98 0.2 NW 6 7 3 4 1009.4 1009.0 0.0
27/11:00pm 25.5 31.1 25.5 100 0.0 NNW 6 7 3 4 1009.4 1009.0 0.0
27/10:30pm 25.6 31.5 24.7 95 0.6 NNW 2 6 1 3 1009.3 1008.9 0.0
27/10:00pm 25.9 30.9 24.5 92 1.0 NW 6 7 3 4 1008.9 1008.5 0.0
27/09:30pm 26.3 31.3 24.5 90 1.2 N 6 9 3 5 1008.5 1008.1 0.0
27/09:00pm 26.5 31.2 24.3 88 1.5 N 7 13 4 7 1008.5 1008.1 0.0
27/08:30pm 26.6 30.9 24.3 87 1.6 N 9 15 5 8 1008.3 1007.9 0.0
27/08:00pm 26.9 31.2 24.2 85 1.9 N 9 15 5 8 1008.2 1007.8 0.0
27/07:30pm 27.1 30.9 24.0 83 2.1 N 11 19 6 10 1007.8 1007.4 0.0
27/07:00pm 27.5 30.6 23.5 79 2.7 N 13 20 7 11 1007.2 1006.8 0.0
27/06:30pm 28.4 31.6 23.1 73 3.6 N 11 17 6 9 1006.9 1006.5 0.0
27/06:00pm 29.2 30.9 21.7 64 5.0 N 15 24 8 13 1006.7 1006.3 0.0
27/05:30pm 30.2 31.0 19.9 54 6.8 NNW 15 22 8 12 1006.6 1006.2 0.0
27/05:00pm 30.9 31.9 20.2 53 7.1 NNW 15 20 8 11 1006.7 1006.3 0.0
27/04:30pm 31.2 32.3 20.5 53 7.1 NNW 15 22 8 12 1006.8 1006.4 0.0
27/04:00pm 31.5 32.2 20.4 51 7.4 NNW 17 24 9 13 1007.0 1006.6 0.0
27/03:30pm 31.1 31.7 21.0 55 6.8 NNW 19 26 10 14 1007.4 1007.0 0.0
27/03:00pm 31.3 32.1 21.8 57 6.4 NNW 20 28 11 15 1007.6 1007.2 0.0
27/02:30pm 31.2 32.4 22.5 60 6.0 NNW 20 32 11 17 1008.1 1007.7 0.0
27/02:00pm 31.2 32.1 21.9 57 6.3 NW 20 28 11 15 1008.4 1008.0 0.0
27/01:30pm 30.7 32.4 22.3 61 5.7 NNW 17 26 9 14 1008.8 1008.4 0.0
27/01:00pm 31.7 34.2 23.2 60 5.9 NNW 15 24 8 13 1009.4 1009.0 0.0
27/12:30pm 31.0 33.2 22.6 61 5.8 NW 15 26 8 14 1009.7 1009.4 0.0
27/12:00pm 30.8 33.1 22.1 59 5.9 NW 13 20 7 11 1009.8 1009.5 0.0
27/11:30am 31.4 33.9 22.4 59 6.2 NW 13 20 7 11 1010.0 1009.7 0.0
27/11:00am 30.6 32.7 22.5 62 5.5 WNW 15 22 8 12 1010.2 1009.9 0.0
27/10:30am 30.5 32.2 22.4 62 5.5 WNW 17 26 9 14 1010.1 1009.8 0.0
27/10:00am 29.5 31.8 22.7 67 4.6 WSW 15 22 8 12 1010.0 1009.7 0.0
27/09:30am 28.8 32.0 23.0 71 4.0 WSW 11 20 6 11 1010.0 1009.7 0.0
27/09:00am 28.3 31.3 23.4 75 3.4 WSW 13 17 7 9 1009.7 1009.4 0.0
27/08:30am 27.6 32.7 24.6 84 2.1 W 6 9 3 5 1009.3 1008.9 0.0
27/08:00am 26.5 31.7 25.1 92 1.0 W 7 11 4 6 1009.0 1008.6 0.0
27/07:30am 25.5 30.8 25.3 99 0.1 WSW 7 11 4 6 1008.6 1008.2 0.0
27/07:00am 24.2 29.0 24.2 100 0.0 WSW 6 9 3 5 1008.2 1007.8 0.0
27/06:35am 23.8 28.4 23.8 100 0.0 WNW 6 7 3 4 1008.1 1007.7 0.0
27/06:30am 23.9 28.9 23.9 100 0.0 W 4 7 2 4 1008.1 1007.7 0.0
27/06:00am 24.3 29.6 24.3 100 0.0 NW 4 7 2 4 1008.0 1007.6 0.0
27/05:41am 24.8 30.0 24.8 100 0.0 W 6 9 3 5 1007.9 1007.5 0.0
27/05:30am 24.6 29.5 24.6 100 0.0 W 7 9 4 5 1007.9 1007.5 0.0
27/05:06am 24.6 29.5 24.6 100 0.0 NW 7 9 4 5 1007.7 1007.3 0.0
27/05:00am 24.6 29.5 24.6 100 0.0 NW 7 9 4 5 1007.7 1007.3 0.0
27/04:40am 25.2 30.6 25.2 100 0.0 WSW 6 9 3 5 1007.7 1007.3 0.0
27/04:30am 24.8 29.9 24.6 99 0.1 WNW 6 7 3 4 1007.6 1007.2 0.0
27/04:08am 25.3 30.0 25.0 98 0.2 WSW 9 9 5 5 1007.6 1007.2 0.0
27/04:00am 25.1 30.2 24.9 99 0.1 WSW 7 9 4 5 1007.6 1007.2 0.0
27/03:30am 24.6 30.3 23.7 95 0.6 CALM 0 0 0 0 1007.9 1007.5 0.0
27/03:27am 24.8 30.5 23.8 94 0.7 CALM 0 6 0 3 1007.9 1007.5 0.0
27/03:12am 25.2 30.6 24.5 96 0.5 W 4 7 2 4 1008.0 1007.6 0.0
27/03:00am 25.4 30.3 24.4 94 0.7 WSW 6 9 3 5 1008.1 1007.7 0.0
27/02:30am 25.1 30.3 24.8 98 0.2 W 6 9 3 5 1008.3 1007.9 0.0
27/02:22am 25.1 30.3 24.8 98 0.2 W 6 9 3 5 1008.3 1007.9 0.0
27/02:21am 25.1 30.2 24.6 97 0.3 W 6 9 3 5 1008.3 1007.9 0.0
27/02:07am 25.1 30.3 24.8 98 0.2 W 6 9 3 5 1008.6 1008.2 0.0
27/02:00am 25.1 30.5 25.1 100 0.0 W 6 7 3 4 1008.7 1008.3 0.0
27/01:58am 24.9 30.4 24.7 99 0.1 W 4 7 2 4 1008.8 1008.4 0.0
27/01:30am 25.3 31.0 25.0 98 0.2 WNW 4 6 2 3 1009.2 1008.8 0.0
27/01:03am 25.6 31.0 25.1 97 0.3 WNW 6 9 3 5 1009.6 1009.2 0.0
27/01:01am 25.6 31.0 25.1 97 0.3 WNW 6 9 3 5 1009.6 1009.2 0.0
27/01:00am 25.6 31.0 25.1 97 0.3 WNW 6 9 3 5 1009.6 1009.2 0.0
27/12:30am 25.5 31.1 25.5 100 0.0 WNW 6 9 3 5 1009.9 1009.6 0.0
27/12:00am 25.7 31.0 25.2 97 0.3 NW 7 9 4 5 1010.1 1009.8 0.0
 
Date/Time
CST
Temp
°C
App
Temp
°C
Dew
Point
°C
Rel
Hum
%
Delta-T
°C
Wind Press
QNH
hPa
Press
MSL
hPa
Rain since
9am
mm
Dir  Spd
km/h
Gust
km/h
Spd
kts
Gust
kts
26/11:38pm 25.9 31.3 25.4 97 0.4 WNW 7 9 4 5 1010.1 1009.8 0.0
26/11:30pm 25.9 31.2 25.2 96 0.5 NW 7 9 4 5 1010.1 1009.8 0.0
26/11:00pm 26.0 31.3 25.3 96 0.5 NW 7 11 4 6 1010.2 1009.9 0.0
26/10:30pm 26.1 31.4 25.2 95 0.6 NNW 7 9 4 5 1010.2 1009.9 0.0
26/10:00pm 26.4 31.5 25.0 92 1.0 NNW 7 11 4 6 1010.1 1009.8 0.0
26/09:50pm 26.6 31.3 25.0 91 1.1 NNW 9 11 5 6 1010.1 1009.8 0.0
26/09:37pm 26.6 31.7 25.0 91 1.1 NW 7 9 4 5 1010.0 1009.7 0.0
26/09:30pm 26.7 31.9 25.1 91 1.1 NNW 7 11 4 6 1009.9 1009.6 0.0
26/09:29pm 26.7 31.9 25.1 91 1.1 NNW 7 11 4 6 1009.9 1009.6 0.0
26/09:00pm 26.8 31.8 24.8 89 1.4 NNW 7 11 4 6 1009.5 1009.1 0.0
26/08:30pm 27.3 32.1 25.1 88 1.5 NW 9 13 5 7 1009.2 1008.8 0.0
26/08:16pm 27.3 32.1 25.1 88 1.5 NNW 9 13 5 7 1009.3 1008.9 0.0
26/08:00pm 27.1 31.4 24.9 88 1.5 NNW 11 19 6 10 1009.0 1008.6 0.0
26/07:30pm 27.1 31.3 25.3 90 1.3 NNW 13 19 7 10 1008.3 1007.9 0.0
26/07:00pm 27.4 31.8 25.0 87 1.7 NW 11 17 6 9 1007.9 1007.5 0.0
26/06:30pm 27.9 30.9 24.7 83 2.2 NW 17 22 9 12 1007.5 1007.1 0.0
26/06:00pm 28.4 31.8 24.6 80 2.7 NNW 15 24 8 13 1007.3 1006.9 0.0
26/05:30pm 29.2 32.4 24.3 75 3.4 NNW 15 24 8 13 1007.1 1006.7 0.0
26/05:00pm 29.8 32.4 24.0 71 4.0 NNW 17 26 9 14 1007.0 1006.6 0.0
26/04:30pm 29.8 32.3 24.7 74 3.6 NNW 20 30 11 16 1007.1 1006.7 0.0
26/04:00pm 30.0 32.2 24.2 71 4.0 NNW 20 28 11 15 1007.1 1006.7 0.0
26/03:30pm 30.7 33.3 24.6 70 4.3 N 19 28 10 15 1007.5 1007.1 0.0
26/03:00pm 31.0 33.7 24.1 66 4.8 NNW 17 26 9 14 1007.7 1007.3 0.0
26/02:30pm 31.7 34.2 23.8 63 5.5 N 17 22 9 12 1007.9 1007.5 0.0
26/02:00pm 31.7 34.2 23.2 60 5.9 NNW 15 19 8 10 1008.2 1007.8 0.0
26/01:30pm 32.4 35.2 23.6 59 6.1 NNW 15 22 8 12 1008.5 1008.1 0.0
26/01:00pm 32.9 35.8 23.2 56 6.7 NW 13 20 7 11 1008.9 1008.5 0.0
26/12:30pm 33.5 35.5 21.6 49 8.1 WNW 13 20 7 11 1009.2 1008.8 0.0
26/12:00pm 34.2 37.0 22.3 50 8.2 WNW 11 17 6 9 1009.5 1009.1 0.0
26/11:30am 33.2 35.4 20.4 47 8.6 WNW 9 19 5 10 1009.8 1009.5 0.0
26/11:00am 32.1 35.1 21.3 53 7.3 NW 7 11 4 6 1009.9 1009.6 0.0
26/10:30am 31.2 34.9 23.3 63 5.5 W 9 13 5 7 1010.0 1009.7 0.0
26/10:00am 30.7 35.2 23.6 66 4.9 W 6 11 3 6 1010.0 1009.7 0.0
26/09:30am 29.6 34.0 23.8 71 4.0 WSW 7 11 4 6 1009.8 1009.5 0.0
26/09:00am 28.8 33.0 24.1 76 3.3 SW 9 13 5 7 1009.5 1009.1 0.0
26/08:30am 27.6 32.2 24.8 85 2.0 WSW 9 15 5 8 1009.3 1008.9 0.0
26/08:00am 26.7 31.9 25.1 91 1.1 WSW 7 9 4 5 1009.1 1008.7 0.0
26/07:30am 25.8 30.6 25.1 96 0.5 WSW 9 15 5 8 1008.8 1008.4 0.0
26/07:00am 25.3 30.1 25.1 99 0.1 SW 9 13 5 7 1008.4 1008.0 0.0
26/06:30am 25.2 30.3 25.0 99 0.1 WSW 7 11 4 6 1008.1 1007.7 0.0
26/06:00am 25.3 30.5 25.1 99 0.1 WSW 7 13 4 7 1007.8 1007.4 0.0
26/05:30am 25.0 30.7 25.0 100 0.0 SW 4 11 2 6 1007.7 1007.3 0.0
26/05:00am 25.2 30.6 25.2 100 0.0 W 6 9 3 5 1007.7 1007.3 0.0
26/04:55am 25.3 30.6 25.3 100 0.0 W 7 11 4 6 1007.6 1007.2 0.0
26/04:40am 25.3 30.2 25.3 100 0.0 W 9 13 5 7 1007.5 1007.1 0.0
26/04:30am 25.3 30.2 25.3 100 0.0 W 9 13 5 7 1007.5 1007.1 0.0
26/04:00am 25.4 29.9 25.2 99 0.1 W 11 15 6 8 1007.9 1007.5 0.0
26/03:30am 25.4 29.9 25.2 99 0.1 W 11 15 6 8 1008.0 1007.6 0.0
26/03:00am 25.3 30.4 25.0 98 0.2 W 7 11 4 6 1008.3 1007.9 0.0
26/02:30am 25.2 30.5 25.2 100 0.0 W 7 9 4 5 1008.8 1008.4 0.0
26/02:00am 24.6 29.7 24.6 100 0.0 WNW 6 9 3 5 1009.1 1008.7 0.0
26/01:30am 24.4 29.3 24.4 100 0.0 WNW 6 7 3 4 1009.5 1009.1 0.0
26/01:14am 24.6 30.8 24.6 100 0.0 CALM 0 0 0 0 1009.6 1009.2 0.0
26/01:00am 24.6 30.8 24.6 100 0.0 CALM 0 6 0 3 1009.7 1009.4 0.0
26/12:35am 24.3 30.3 24.3 100 0.0 CALM 0 0 0 0 1010.1 1009.8 0.0
26/12:30am 24.1 30.0 24.1 100 0.0 CALM 0 0 0 0 1010.1 1009.8 0.0
26/12:00am 24.8 30.3 24.6 99 0.1 W 4 6 2 3 1010.3 1010.0 0.0
 
Date/Time
CST
Temp
°C
App
Temp
°C
Dew
Point
°C
Rel
Hum
%
Delta-T
°C
Wind Press
QNH
hPa
Press
MSL
hPa
Rain since
9am
mm
Dir  Spd
km/h
Gust
km/h
Spd
kts
Gust
kts
25/11:30pm 24.9 29.8 24.4 97 0.3 WNW 6 7 3 4 1010.2 1009.9 0.0
25/11:00pm 25.0 30.6 24.3 96 0.5 WNW 2 7 1 4 1010.3 1010.0 0.0
25/10:30pm 25.8 30.6 24.2 91 1.1 WNW 6 9 3 5 1010.1 1009.8 0.0
25/10:00pm 26.6 31.4 24.1 86 1.7 WSW 6 9 3 5 1010.0 1009.7 0.0
25/09:30pm 26.8 31.4 24.1 85 1.9 W 7 9 4 5 1009.6 1009.2 0.0
25/09:00pm 27.2 31.4 24.1 83 2.1 W 9 11 5 6 1009.4 1009.0 0.0
25/08:30pm 27.3 31.3 23.7 81 2.5 WNW 9 13 5 7 1009.0 1008.6 0.0
25/08:00pm 27.8 31.1 23.2 76 3.1 W 11 15 6 8 1008.7 1008.3 0.0
25/07:30pm 27.5 31.5 23.7 80 2.6 NW 9 17 5 9 1008.2 1007.8 0.0
25/07:00pm 27.6 30.9 23.8 80 2.6 NW 13 19 7 10 1007.9 1007.5 0.0
25/06:30pm 28.2 31.3 23.6 76 3.2 NW 13 20 7 11 1007.8 1007.4 0.0
25/06:00pm 28.6 30.8 23.3 73 3.6 NW 17 26 9 14 1007.8 1007.4 0.0
25/05:30pm 28.9 30.9 23.6 73 3.7 NNW 19 28 10 15 1007.6 1007.2 0.0

Other formats

Comma delimited format used in spreadsheet applications
http://www.bom.gov.au/fwo/IDD60801/IDD60801.95101.axf

JavaScript Object Notation format (JSON) in row-major order
http://www.bom.gov.au/fwo/IDD60801/IDD60801.95101.json

Data quality

Most of these data are generated automatically and are frequently updated. Quality checks on data are not normally performed. It is possible for incorrect values to appear. Refer to information at About Latest Weather Observations and please check the disclaimer before using these data.